Terminal Aerodrome Forecast
Issued by NWS

Home | Current Version | Previous Version | Text Only | Print | Product List | Glossary On
Versions: 1 2 3 4 5 6 7 8 9 10 11 12 13
248
FTUS44 KTSA 220520
TAFMLC
TAF
KMLC 220520Z 2206/2306 18003KT P6SM SKC
     FM221500 20009KT P6SM SCT070
     FM230100 16004KT P6SM SKC=

USA.gov is the U.S. government's official web portal to all federal, state and local government web resources and services.